createdAt,value
2023-07-24T00:01:08.617Z,72.92
2023-07-24T00:06:10.338Z,72.22
2023-07-24T00:11:12.024Z,69.93
2023-07-24T00:16:13.698Z,69.96
2023-07-24T00:21:15.448Z,69.05
2023-07-24T00:26:17.315Z,71.25
2023-07-24T00:31:18.968Z,71.58
2023-07-24T00:36:20.725Z,72.08
2023-07-24T00:41:22.385Z,72.91
2023-07-24T00:46:24.571Z,70.42
2023-07-24T00:51:29.150Z,71.42
2023-07-24T00:56:33.071Z,68.84
2023-07-24T01:01:35.072Z,70.05
2023-07-24T01:06:36.689Z,71.49
2023-07-24T01:11:43.803Z,72.03
2023-07-24T01:16:48.149Z,72.85
2023-07-24T01:22:36.216Z,70.67
2023-07-24T01:27:45.308Z,68.50
2023-07-24T01:32:47.153Z,69.95
2023-07-24T01:37:49.908Z,70.58
2023-07-24T01:42:51.967Z,71.63
2023-07-24T01:47:53.669Z,72.29
2023-07-24T01:52:55.368Z,70.56
2023-07-24T01:57:57.304Z,68.82
2023-07-24T02:02:59.284Z,68.59
2023-07-24T02:08:00.949Z,69.37
2023-07-24T02:13:02.730Z,70.39
2023-07-24T02:18:04.351Z,70.74
2023-07-24T02:23:06.002Z,71.91
2023-07-24T02:28:07.665Z,70.86
2023-07-24T02:33:09.302Z,67.51
2023-07-24T02:38:11.127Z,67.20
2023-07-24T02:43:12.775Z,67.65
2023-07-24T02:48:14.473Z,68.60
2023-07-24T02:53:16.655Z,69.66
2023-07-24T02:58:18.327Z,69.27
2023-07-24T03:03:20.127Z,69.23
2023-07-24T03:08:21.767Z,68.71
2023-07-24T03:13:23.469Z,67.85
2023-07-24T03:18:25.820Z,67.94
2023-07-24T03:23:27.653Z,68.21
2023-07-24T03:28:29.288Z,67.94
2023-07-24T03:33:30.867Z,69.32
2023-07-24T03:38:35.825Z,69.95
2023-07-24T03:43:37.970Z,70.59
2023-07-24T03:48:39.709Z,69.42
2023-07-24T03:53:41.851Z,66.88
2023-07-24T03:58:43.572Z,66.57
2023-07-24T04:03:45.255Z,66.90
2023-07-24T04:08:46.993Z,67.60
2023-07-24T04:13:48.610Z,68.59
2023-07-24T04:18:50.360Z,68.55
2023-07-24T04:23:52.107Z,68.82
2023-07-24T04:28:53.813Z,68.19
2023-07-24T04:33:55.423Z,68.22
2023-07-24T04:38:57.332Z,69.16
2023-07-24T04:43:59.122Z,68.17
2023-07-24T04:49:00.927Z,69.49
2023-07-24T04:54:02.562Z,73.00
2023-07-24T04:59:04.273Z,70.48
2023-07-24T05:04:05.955Z,68.80
2023-07-24T05:09:07.740Z,68.39
2023-07-24T05:14:09.450Z,67.89
2023-07-24T05:19:11.131Z,68.47
2023-07-24T05:24:12.798Z,70.23
2023-07-24T05:29:15.606Z,69.02
2023-07-24T05:34:17.291Z,73.51
2023-07-24T05:39:19.029Z,71.09
2023-07-24T05:44:20.647Z,70.70
2023-07-24T05:49:22.848Z,71.52
2023-07-24T05:54:24.509Z,69.52
2023-07-24T05:59:26.141Z,65.90
2023-07-24T06:04:27.932Z,68.63
2023-07-24T06:09:29.840Z,69.05
2023-07-24T06:14:31.537Z,68.74
2023-07-24T06:19:33.277Z,70.78
2023-07-24T06:24:35.053Z,69.33
2023-07-24T06:29:38.089Z,67.75
2023-07-24T06:34:41.602Z,68.92
2023-07-24T06:39:43.332Z,69.40
2023-07-24T06:44:44.979Z,69.11
2023-07-24T06:49:46.636Z,67.50
2023-07-24T06:54:48.392Z,65.07
2023-07-24T06:59:50.064Z,60.73
2023-07-24T07:04:51.753Z,63.31
2023-07-24T07:09:53.481Z,61.70
2023-07-24T07:14:55.287Z,58.85
2023-07-24T07:19:58.639Z,59.94
2023-07-24T07:25:00.414Z,58.69
2023-07-24T07:30:02.131Z,58.24
2023-07-24T07:35:04.600Z,58.45
2023-07-24T07:40:07.515Z,58.09
2023-07-24T07:45:09.663Z,58.93
2023-07-24T07:50:11.433Z,59.03
2023-07-24T07:55:14.919Z,59.19
2023-07-24T08:00:16.942Z,59.92
2023-07-24T08:05:21.258Z,61.01
2023-07-24T08:10:23.610Z,60.43
2023-07-24T08:15:25.373Z,58.90
2023-07-24T08:20:27.119Z,59.60
2023-07-24T08:25:28.929Z,60.70
2023-07-24T08:30:30.588Z,60.56
2023-07-24T08:35:32.277Z,59.54
2023-07-24T08:40:34.086Z,62.84
2023-07-24T08:45:36.097Z,61.26
2023-07-24T08:50:38.745Z,65.05
2023-07-24T08:55:40.911Z,63.54
2023-07-24T09:00:43.229Z,61.70
2023-07-24T09:05:44.964Z,56.94
2023-07-24T09:10:51.519Z,55.61
2023-07-24T09:15:53.567Z,54.39
2023-07-24T09:20:55.934Z,52.21
2023-07-24T09:25:57.809Z,51.26
2023-07-24T09:31:02.138Z,52.46
2023-07-24T09:36:06.047Z,50.63
2023-07-24T09:41:08.176Z,49.95
2023-07-24T09:46:11.813Z,48.29
2023-07-24T09:51:16.787Z,48.50
2023-07-24T09:56:19.293Z,49.25
2023-07-24T10:01:21.307Z,48.92
2023-07-24T10:06:23.722Z,48.59
2023-07-24T10:11:26.254Z,47.07
2023-07-24T10:16:28.132Z,46.60
2023-07-24T10:21:30.342Z,45.77
2023-07-24T10:26:32.422Z,44.99
2023-07-24T10:31:34.480Z,45.96
2023-07-24T10:36:37.609Z,45.74
2023-07-24T10:41:41.098Z,46.27
2023-07-24T10:46:45.912Z,46.61
2023-07-24T10:51:47.590Z,47.51
2023-07-24T10:56:52.054Z,47.23
2023-07-24T11:01:54.173Z,47.32
2023-07-24T11:06:58.720Z,46.30
2023-07-24T11:12:00.593Z,46.85
2023-07-24T11:17:02.332Z,48.60
2023-07-24T11:22:04.965Z,50.59
2023-07-24T11:27:13.505Z,50.76
2023-07-24T11:32:21.831Z,51.35
2023-07-24T11:37:23.661Z,49.54
2023-07-24T11:42:28.810Z,49.72
2023-07-24T11:47:33.510Z,49.75
2023-07-24T11:52:45.657Z,48.72
2023-07-24T11:58:01.094Z,47.29
2023-07-24T12:03:05.948Z,47.30
2023-07-24T12:08:08.556Z,48.71
2023-07-24T12:13:10.897Z,47.81
2023-07-24T12:18:12.564Z,49.74
2023-07-24T12:23:14.425Z,47.30
2023-07-24T12:28:16.276Z,48.09
2023-07-24T12:33:18.270Z,47.58
2023-07-24T12:38:20.392Z,48.76
2023-07-24T12:43:22.095Z,49.86
2023-07-24T12:48:23.840Z,49.82
2023-07-24T12:53:31.698Z,47.85
2023-07-24T12:58:35.374Z,48.25
2023-07-24T13:03:37.098Z,47.52
2023-07-24T13:08:38.873Z,46.30
2023-07-24T13:13:40.551Z,45.38
2023-07-24T13:18:42.199Z,46.44
2023-07-24T13:23:44.037Z,44.97
2023-07-24T13:28:45.666Z,43.39
2023-07-24T13:33:48.211Z,44.11
2023-07-24T13:38:51.900Z,43.71
2023-07-24T13:43:53.786Z,44.94
2023-07-24T13:48:55.674Z,45.86
2023-07-24T13:53:57.365Z,45.69
2023-07-24T13:58:59.951Z,47.75
2023-07-24T14:04:02.448Z,47.06
2023-07-24T14:09:04.575Z,44.45
2023-07-24T14:14:06.283Z,45.91
2023-07-24T14:19:08.366Z,45.03
2023-07-24T14:24:11.024Z,43.05
2023-07-24T14:29:13.998Z,43.48
2023-07-24T14:34:16.289Z,43.92
2023-07-24T14:39:18.738Z,45.13
2023-07-24T14:44:21.411Z,43.88
2023-07-24T14:49:24.261Z,41.76
2023-07-24T14:54:27.034Z,38.81
2023-07-24T14:59:30.099Z,39.35
2023-07-24T15:04:32.494Z,40.60
2023-07-24T15:09:35.226Z,39.99
2023-07-24T15:14:38.235Z,38.90
2023-07-24T15:19:41.305Z,40.09
2023-07-24T15:24:44.730Z,40.87
2023-07-24T15:29:49.470Z,41.21
2023-07-24T15:34:52.467Z,42.51
2023-07-24T15:39:55.958Z,42.12
2023-07-24T15:44:57.889Z,39.12
2023-07-24T15:50:02.360Z,38.72
2023-07-24T15:55:04.322Z,38.44
2023-07-24T16:00:08.697Z,37.60
2023-07-24T16:05:21.522Z,37.86
2023-07-24T16:10:24.189Z,39.62
2023-07-24T16:20:30.698Z,39.85
2023-07-24T16:25:32.666Z,39.56
2023-07-24T16:30:35.654Z,38.54
2023-07-24T16:35:37.698Z,38.73
2023-07-24T16:40:39.929Z,39.10
2023-07-24T16:45:42.839Z,39.07
2023-07-24T16:51:05.723Z,38.56
2023-07-24T16:56:08.666Z,38.86
2023-07-24T17:01:11.799Z,38.13
2023-07-24T17:06:15.013Z,39.18
2023-07-24T17:11:18.466Z,39.89
2023-07-24T17:16:21.491Z,40.27
2023-07-24T17:21:24.753Z,40.16
2023-07-24T17:26:32.928Z,39.48
2023-07-24T17:31:35.962Z,39.88
2023-07-24T17:36:39.110Z,38.93
2023-07-24T17:41:42.224Z,41.71
2023-07-24T17:46:47.360Z,39.60
2023-07-24T17:51:52.084Z,39.07
2023-07-24T17:56:56.592Z,38.45
2023-07-24T18:02:01.628Z,38.15
2023-07-24T18:07:07.048Z,38.58
2023-07-24T18:12:10.907Z,40.98
2023-07-24T18:17:16.092Z,40.50
2023-07-24T18:22:21.070Z,42.00
2023-07-24T18:27:24.386Z,44.21
2023-07-24T18:32:27.643Z,45.50
2023-07-24T18:37:31.013Z,46.32
2023-07-24T18:42:34.353Z,46.89
2023-07-24T18:47:38.254Z,45.48
2023-07-24T18:52:42.127Z,45.21
2023-07-24T18:57:45.422Z,41.94
2023-07-24T19:02:49.504Z,41.69
2023-07-24T19:07:54.100Z,42.22
2023-07-24T19:12:57.403Z,40.04
2023-07-24T19:18:03.422Z,39.76
2023-07-24T19:23:06.789Z,41.83
2023-07-24T19:28:11.148Z,42.53
2023-07-24T19:33:16.335Z,42.19
2023-07-24T19:38:19.684Z,42.60
2023-07-24T19:43:27.527Z,43.52
2023-07-24T19:48:30.788Z,45.80
2023-07-24T19:53:34.153Z,47.91
2023-07-24T19:58:37.449Z,48.28
2023-07-24T20:03:43.410Z,50.18
2023-07-24T20:08:46.740Z,52.34
2023-07-24T20:13:52.574Z,50.82
2023-07-24T20:18:55.432Z,48.98
2023-07-24T20:24:12.369Z,51.08
2023-07-24T20:29:16.862Z,52.82
2023-07-24T20:34:20.083Z,50.06
2023-07-24T20:39:23.284Z,54.06
2023-07-24T20:44:26.584Z,57.53
2023-07-24T20:49:29.747Z,57.68
2023-07-24T20:54:32.967Z,58.11
2023-07-24T20:59:36.053Z,60.82
2023-07-24T21:04:37.925Z,61.08
2023-07-24T21:09:39.767Z,63.91
2023-07-24T21:14:41.387Z,58.81
2023-07-24T21:19:43.723Z,59.36
2023-07-24T21:24:46.227Z,61.90
2023-07-24T21:29:50.581Z,60.33
2023-07-24T21:34:52.368Z,61.65
2023-07-24T21:39:53.998Z,63.64
2023-07-24T21:44:55.656Z,64.61
2023-07-24T21:49:57.253Z,62.67
2023-07-24T21:54:58.950Z,65.13
2023-07-24T22:00:00.536Z,66.00
2023-07-24T22:05:02.208Z,66.54
2023-07-24T22:10:04.172Z,62.18
2023-07-24T22:15:06.488Z,60.18
2023-07-24T22:20:08.663Z,59.16
2023-07-24T22:25:10.371Z,60.50
2023-07-24T22:30:12.480Z,62.14
2023-07-24T22:35:15.003Z,65.01
2023-07-24T22:40:16.762Z,71.52
2023-07-24T22:45:18.384Z,69.28
2023-07-24T22:50:20.059Z,65.82
2023-07-24T22:55:21.716Z,65.14
2023-07-24T23:00:23.536Z,64.22
2023-07-24T23:05:25.289Z,64.79
2023-07-24T23:10:26.943Z,65.10
2023-07-24T23:15:28.618Z,66.09
2023-07-24T23:20:30.229Z,67.53
2023-07-24T23:25:31.819Z,64.02
2023-07-24T23:30:41.193Z,64.92
2023-07-24T23:35:42.827Z,64.39
2023-07-24T23:40:44.454Z,63.38
2023-07-24T23:45:46.015Z,64.64
2023-07-24T23:50:47.769Z,67.02
2023-07-24T23:55:49.330Z,67.74
